sensor_id;sensor_type;location;lat;lon;timestamp;temperature;humidity
65598;SHT31;52267;51.984;20.956;2023-02-01T00:00:58;2.73;90.06
65598;SHT31;52267;51.984;20.956;2023-02-01T00:03:26;2.68;90.02
65598;SHT31;52267;51.984;20.956;2023-02-01T00:05:54;2.64;89.99
65598;SHT31;52267;51.984;20.956;2023-02-01T00:08:25;2.60;89.98
65598;SHT31;52267;51.984;20.956;2023-02-01T00:11:00;2.56;89.95
65598;SHT31;52267;51.984;20.956;2023-02-01T00:13:33;2.54;89.98
65598;SHT31;52267;51.984;20.956;2023-02-01T00:16:03;2.50;90.01
65598;SHT31;52267;51.984;20.956;2023-02-01T00:18:44;2.45;90.01
65598;SHT31;52267;51.984;20.956;2023-02-01T00:21:13;2.40;89.91
65598;SHT31;52267;51.984;20.956;2023-02-01T00:23:44;2.31;89.97
65598;SHT31;52267;51.984;20.956;2023-02-01T00:26:19;2.24;90.07
65598;SHT31;52267;51.984;20.956;2023-02-01T00:28:51;2.21;90.19
65598;SHT31;52267;51.984;20.956;2023-02-01T00:31:19;2.19;90.32
65598;SHT31;52267;51.984;20.956;2023-02-01T00:33:47;2.20;90.36
65598;SHT31;52267;51.984;20.956;2023-02-01T00:36:15;2.19;90.33
65598;SHT31;52267;51.984;20.956;2023-02-01T00:38:43;2.20;90.34
65598;SHT31;52267;51.984;20.956;2023-02-01T00:41:15;2.23;90.31
65598;SHT31;52267;51.984;20.956;2023-02-01T00:43:44;2.27;90.25
65598;SHT31;52267;51.984;20.956;2023-02-01T00:46:12;2.30;90.18
65598;SHT31;52267;51.984;20.956;2023-02-01T00:48:41;2.34;90.20
65598;SHT31;52267;51.984;20.956;2023-02-01T00:51:11;2.38;90.31
65598;SHT31;52267;51.984;20.956;2023-02-01T00:53:42;2.43;90.18
65598;SHT31;52267;51.984;20.956;2023-02-01T00:56:09;2.50;90.52
65598;SHT31;52267;51.984;20.956;2023-02-01T00:58:37;2.59;90.61
65598;SHT31;52267;51.984;20.956;2023-02-01T01:01:06;2.65;90.59
65598;SHT31;52267;51.984;20.956;2023-02-01T01:03:37;2.73;90.52
65598;SHT31;52267;51.984;20.956;2023-02-01T01:06:11;2.81;90.35
65598;SHT31;52267;51.984;20.956;2023-02-01T01:08:41;2.88;90.32
65598;SHT31;52267;51.984;20.956;2023-02-01T01:11:11;2.96;90.27
65598;SHT31;52267;51.984;20.956;2023-02-01T01:13:42;3.03;90.33
65598;SHT31;52267;51.984;20.956;2023-02-01T01:16:12;3.09;90.19
65598;SHT31;52267;51.984;20.956;2023-02-01T01:18:40;3.15;90.01
65598;SHT31;52267;51.984;20.956;2023-02-01T01:21:08;3.17;89.79
65598;SHT31;52267;51.984;20.956;2023-02-01T01:23:38;3.19;89.70
65598;SHT31;52267;51.984;20.956;2023-02-01T01:26:09;3.19;89.62
65598;SHT31;52267;51.984;20.956;2023-02-01T01:28:41;3.19;89.48
65598;SHT31;52267;51.984;20.956;2023-02-01T01:31:09;3.19;89.38
65598;SHT31;52267;51.984;20.956;2023-02-01T01:33:38;3.18;89.29
65598;SHT31;52267;51.984;20.956;2023-02-01T01:36:09;3.15;89.04
65598;SHT31;52267;51.984;20.956;2023-02-01T01:38:38;3.15;89.00
65598;SHT31;52267;51.984;20.956;2023-02-01T01:41:07;3.14;88.84
65598;SHT31;52267;51.984;20.956;2023-02-01T01:46:57;3.08;88.61
65598;SHT31;52267;51.984;20.956;2023-02-01T01:49:08;3.06;88.46
65598;SHT31;52267;51.984;20.956;2023-02-01T01:51:41;3.06;88.25
65598;SHT31;52267;51.984;20.956;2023-02-01T01:54:17;3.06;87.78
65598;SHT31;52267;51.984;20.956;2023-02-01T01:56:49;3.04;87.64
65598;SHT31;52267;51.984;20.956;2023-02-01T01:59:23;3.02;87.49
65598;SHT31;52267;51.984;20.956;2023-02-01T02:01:51;3.00;87.36
65598;SHT31;52267;51.984;20.956;2023-02-01T02:04:19;3.00;87.37
65598;SHT31;52267;51.984;20.956;2023-02-01T02:07:08;2.98;87.24
65598;SHT31;52267;51.984;20.956;2023-02-01T02:09:46;2.95;87.12
65598;SHT31;52267;51.984;20.956;2023-02-01T02:12:14;2.93;86.88
65598;SHT31;52267;51.984;20.956;2023-02-01T02:14:42;2.93;86.94
65598;SHT31;52267;51.984;20.956;2023-02-01T02:17:24;2.92;86.83
65598;SHT31;52267;51.984;20.956;2023-02-01T02:29:49;3.04;86.58
65598;SHT31;52267;51.984;20.956;2023-02-01T02:32:31;3.08;86.31
65598;SHT31;52267;51.984;20.956;2023-02-01T02:41:15;3.18;86.22
65598;SHT31;52267;51.984;20.956;2023-02-01T02:47:36;3.24;86.19
65598;SHT31;52267;51.984;20.956;2023-02-01T02:53:57;3.25;86.26
65598;SHT31;52267;51.984;20.956;2023-02-01T02:56:50;3.26;86.18
65598;SHT31;52267;51.984;20.956;2023-02-01T02:59:38;3.27;86.21
65598;SHT31;52267;51.984;20.956;2023-02-01T03:02:26;3.27;86.31
65598;SHT31;52267;51.984;20.956;2023-02-01T03:05:12;3.27;86.21
65598;SHT31;52267;51.984;20.956;2023-02-01T03:11:01;3.26;85.89
65598;SHT31;52267;51.984;20.956;2023-02-01T03:16:24;3.25;85.61
65598;SHT31;52267;51.984;20.956;2023-02-01T03:19:03;3.28;85.50
65598;SHT31;52267;51.984;20.956;2023-02-01T03:22:22;3.28;85.67
65598;SHT31;52267;51.984;20.956;2023-02-01T03:24:44;3.27;85.76
65598;SHT31;52267;51.984;20.956;2023-02-01T03:29:53;3.24;85.75
65598;SHT31;52267;51.984;20.956;2023-02-01T03:32:33;3.25;85.77
65598;SHT31;52267;51.984;20.956;2023-02-01T03:35:32;3.24;85.69
65598;SHT31;52267;51.984;20.956;2023-02-01T03:41:17;3.29;85.36
65598;SHT31;52267;51.984;20.956;2023-02-01T03:43:55;3.29;85.45
65598;SHT31;52267;51.984;20.956;2023-02-01T03:46:56;3.30;85.52
65598;SHT31;52267;51.984;20.956;2023-02-01T03:49:34;3.30;85.44
65598;SHT31;52267;51.984;20.956;2023-02-01T03:52:06;3.30;85.40
65598;SHT31;52267;51.984;20.956;2023-02-01T03:54:46;3.33;85.25
65598;SHT31;52267;51.984;20.956;2023-02-01T03:57:14;3.35;84.98
65598;SHT31;52267;51.984;20.956;2023-02-01T03:59:48;3.37;84.71
65598;SHT31;52267;51.984;20.956;2023-02-01T04:02:16;3.37;84.77
65598;SHT31;52267;51.984;20.956;2023-02-01T04:04:43;3.38;84.62
65598;SHT31;52267;51.984;20.956;2023-02-01T04:07:10;3.41;84.72
65598;SHT31;52267;51.984;20.956;2023-02-01T04:09:38;3.42;84.52
65598;SHT31;52267;51.984;20.956;2023-02-01T04:12:05;3.44;84.39
65598;SHT31;52267;51.984;20.956;2023-02-01T04:14:32;3.45;84.16
65598;SHT31;52267;51.984;20.956;2023-02-01T04:17:02;3.47;84.23
65598;SHT31;52267;51.984;20.956;2023-02-01T04:19:29;3.48;84.02
65598;SHT31;52267;51.984;20.956;2023-02-01T04:21:56;3.50;83.78
65598;SHT31;52267;51.984;20.956;2023-02-01T04:24:23;3.50;83.83
65598;SHT31;52267;51.984;20.956;2023-02-01T04:26:50;3.51;83.39
65598;SHT31;52267;51.984;20.956;2023-02-01T04:29:17;3.55;83.18
65598;SHT31;52267;51.984;20.956;2023-02-01T04:31:44;3.56;83.58
65598;SHT31;52267;51.984;20.956;2023-02-01T04:34:12;3.58;83.45
65598;SHT31;52267;51.984;20.956;2023-02-01T04:36:39;3.59;83.40
65598;SHT31;52267;51.984;20.956;2023-02-01T04:39:08;3.60;82.76
65598;SHT31;52267;51.984;20.956;2023-02-01T04:41:36;3.62;82.73
65598;SHT31;52267;51.984;20.956;2023-02-01T04:44:03;3.63;82.99
65598;SHT31;52267;51.984;20.956;2023-02-01T04:46:30;3.63;82.58
65598;SHT31;52267;51.984;20.956;2023-02-01T04:48:57;3.64;82.75
65598;SHT31;52267;51.984;20.956;2023-02-01T04:51:24;3.63;82.73
65598;SHT31;52267;51.984;20.956;2023-02-01T04:53:51;3.62;82.80
65598;SHT31;52267;51.984;20.956;2023-02-01T04:56:19;3.61;82.80
65598;SHT31;52267;51.984;20.956;2023-02-01T04:58:46;3.62;82.45
65598;SHT31;52267;51.984;20.956;2023-02-01T05:01:13;3.61;82.68
65598;SHT31;52267;51.984;20.956;2023-02-01T05:03:40;3.61;82.59
65598;SHT31;52267;51.984;20.956;2023-02-01T05:06:07;3.60;82.59
65598;SHT31;52267;51.984;20.956;2023-02-01T05:08:34;3.60;82.44
65598;SHT31;52267;51.984;20.956;2023-02-01T05:11:01;3.60;82.54
65598;SHT31;52267;51.984;20.956;2023-02-01T05:13:31;3.61;82.27
65598;SHT31;52267;51.984;20.956;2023-02-01T05:16:16;3.61;82.18
65598;SHT31;52267;51.984;20.956;2023-02-01T05:18:43;3.62;82.42
65598;SHT31;52267;51.984;20.956;2023-02-01T05:21:11;3.62;82.19
65598;SHT31;52267;51.984;20.956;2023-02-01T05:23:38;3.61;82.24
65598;SHT31;52267;51.984;20.956;2023-02-01T05:26:24;3.61;82.10
65598;SHT31;52267;51.984;20.956;2023-02-01T05:28:51;3.61;81.86
65598;SHT31;52267;51.984;20.956;2023-02-01T05:31:18;3.61;81.51
65598;SHT31;52267;51.984;20.956;2023-02-01T05:33:46;3.62;81.49
65598;SHT31;52267;51.984;20.956;2023-02-01T05:36:13;3.62;81.49
65598;SHT31;52267;51.984;20.956;2023-02-01T05:38:41;3.62;81.46
65598;SHT31;52267;51.984;20.956;2023-02-01T05:41:08;3.62;81.69
65598;SHT31;52267;51.984;20.956;2023-02-01T05:43:35;3.61;82.01
65598;SHT31;52267;51.984;20.956;2023-02-01T05:46:02;3.57;82.12
65598;SHT31;52267;51.984;20.956;2023-02-01T05:48:29;3.55;82.20
65598;SHT31;52267;51.984;20.956;2023-02-01T05:50:57;3.54;82.20
65598;SHT31;52267;51.984;20.956;2023-02-01T05:53:24;3.55;82.32
65598;SHT31;52267;51.984;20.956;2023-02-01T05:55:51;3.53;82.22
65598;SHT31;52267;51.984;20.956;2023-02-01T05:58:18;3.50;82.36
65598;SHT31;52267;51.984;20.956;2023-02-01T06:00:46;3.46;82.46
65598;SHT31;52267;51.984;20.956;2023-02-01T06:03:13;3.42;82.56
65598;SHT31;52267;51.984;20.956;2023-02-01T06:05:40;3.39;82.64
65598;SHT31;52267;51.984;20.956;2023-02-01T06:08:07;3.37;82.60
65598;SHT31;52267;51.984;20.956;2023-02-01T06:10:34;3.34;82.55
65598;SHT31;52267;51.984;20.956;2023-02-01T06:13:01;3.35;82.57
65598;SHT31;52267;51.984;20.956;2023-02-01T06:15:30;3.37;82.27
65598;SHT31;52267;51.984;20.956;2023-02-01T06:17:58;3.38;82.20
65598;SHT31;52267;51.984;20.956;2023-02-01T06:20:26;3.38;82.05
65598;SHT31;52267;51.984;20.956;2023-02-01T06:22:53;3.38;81.98
65598;SHT31;52267;51.984;20.956;2023-02-01T06:25:20;3.39;81.92
65598;SHT31;52267;51.984;20.956;2023-02-01T06:27:47;3.39;81.83
65598;SHT31;52267;51.984;20.956;2023-02-01T06:30:14;3.41;81.64
65598;SHT31;52267;51.984;20.956;2023-02-01T06:32:42;3.43;81.57
65598;SHT31;52267;51.984;20.956;2023-02-01T06:35:09;3.44;81.53
65598;SHT31;52267;51.984;20.956;2023-02-01T06:37:43;3.47;81.66
65598;SHT31;52267;51.984;20.956;2023-02-01T06:40:10;3.50;81.56
65598;SHT31;52267;51.984;20.956;2023-02-01T06:42:38;3.52;81.68
65598;SHT31;52267;51.984;20.956;2023-02-01T06:45:05;3.54;81.57
65598;SHT31;52267;51.984;20.956;2023-02-01T06:47:33;3.56;81.53
65598;SHT31;52267;51.984;20.956;2023-02-01T06:50:00;3.57;81.26
65598;SHT31;52267;51.984;20.956;2023-02-01T06:52:27;3.59;81.35
65598;SHT31;52267;51.984;20.956;2023-02-01T06:54:54;3.59;81.09
65598;SHT31;52267;51.984;20.956;2023-02-01T06:57:22;3.64;81.04
65598;SHT31;52267;51.984;20.956;2023-02-01T06:59:49;3.65;80.80
65598;SHT31;52267;51.984;20.956;2023-02-01T07:02:16;3.69;80.71
65598;SHT31;52267;51.984;20.956;2023-02-01T07:04:43;3.70;80.42
65598;SHT31;52267;51.984;20.956;2023-02-01T07:07:10;3.72;80.29
65598;SHT31;52267;51.984;20.956;2023-02-01T07:09:38;3.75;80.03
65598;SHT31;52267;51.984;20.956;2023-02-01T07:12:05;3.76;80.13
65598;SHT31;52267;51.984;20.956;2023-02-01T07:14:32;3.77;80.02
65598;SHT31;52267;51.984;20.956;2023-02-01T07:17:00;3.79;80.07
65598;SHT31;52267;51.984;20.956;2023-02-01T07:19:27;3.78;79.79
65598;SHT31;52267;51.984;20.956;2023-02-01T07:21:54;3.79;79.97
65598;SHT31;52267;51.984;20.956;2023-02-01T07:24:21;3.79;79.92
65598;SHT31;52267;51.984;20.956;2023-02-01T07:26:48;3.79;79.73
65598;SHT31;52267;51.984;20.956;2023-02-01T07:29:18;3.79;79.72
65598;SHT31;52267;51.984;20.956;2023-02-01T07:31:47;3.78;79.87
65598;SHT31;52267;51.984;20.956;2023-02-01T07:34:14;3.82;80.04
65598;SHT31;52267;51.984;20.956;2023-02-01T07:36:41;3.85;79.63
65598;SHT31;52267;51.984;20.956;2023-02-01T07:39:08;3.85;79.51
65598;SHT31;52267;51.984;20.956;2023-02-01T07:41:35;3.88;79.69
65598;SHT31;52267;51.984;20.956;2023-02-01T07:44:02;3.88;79.70
65598;SHT31;52267;51.984;20.956;2023-02-01T07:46:30;3.91;79.39
65598;SHT31;52267;51.984;20.956;2023-02-01T07:48:57;3.94;79.28
65598;SHT31;52267;51.984;20.956;2023-02-01T07:51:24;3.97;78.97
65598;SHT31;52267;51.984;20.956;2023-02-01T07:53:51;4.00;78.85
65598;SHT31;52267;51.984;20.956;2023-02-01T07:56:19;4.03;78.86
65598;SHT31;52267;51.984;20.956;2023-02-01T07:58:49;4.05;78.95
65598;SHT31;52267;51.984;20.956;2023-02-01T08:01:19;4.08;78.94
65598;SHT31;52267;51.984;20.956;2023-02-01T08:03:52;4.12;78.83
65598;SHT31;52267;51.984;20.956;2023-02-01T08:06:22;4.14;78.56
65598;SHT31;52267;51.984;20.956;2023-02-01T08:08:51;4.17;78.53
65598;SHT31;52267;51.984;20.956;2023-02-01T08:11:20;4.18;78.36
65598;SHT31;52267;51.984;20.956;2023-02-01T08:13:49;4.20;78.58
65598;SHT31;52267;51.984;20.956;2023-02-01T08:16:17;4.23;78.97
65598;SHT31;52267;51.984;20.956;2023-02-01T08:18:45;4.24;78.96
65598;SHT31;52267;51.984;20.956;2023-02-01T08:21:13;4.25;78.74
65598;SHT31;52267;51.984;20.956;2023-02-01T08:23:46;4.24;78.38
65598;SHT31;52267;51.984;20.956;2023-02-01T08:26:14;4.26;78.49
65598;SHT31;52267;51.984;20.956;2023-02-01T08:28:51;4.28;78.34
65598;SHT31;52267;51.984;20.956;2023-02-01T08:31:25;4.28;78.44
65598;SHT31;52267;51.984;20.956;2023-02-01T08:33:55;4.26;78.75
65598;SHT31;52267;51.984;20.956;2023-02-01T08:36:27;4.23;79.03
65598;SHT31;52267;51.984;20.956;2023-02-01T08:38:56;4.16;79.53
65598;SHT31;52267;51.984;20.956;2023-02-01T08:41:25;4.09;79.92
65598;SHT31;52267;51.984;20.956;2023-02-01T08:43:55;4.04;80.35
65598;SHT31;52267;51.984;20.956;2023-02-01T08:46:23;4.00;80.47
65598;SHT31;52267;51.984;20.956;2023-02-01T08:48:51;3.98;80.54
65598;SHT31;52267;51.984;20.956;2023-02-01T08:51:19;3.97;80.79
65598;SHT31;52267;51.984;20.956;2023-02-01T08:53:49;3.98;81.01
65598;SHT31;52267;51.984;20.956;2023-02-01T08:56:17;3.98;81.04
65598;SHT31;52267;51.984;20.956;2023-02-01T08:58:45;3.99;80.97
65598;SHT31;52267;51.984;20.956;2023-02-01T09:01:16;4.01;81.10
65598;SHT31;52267;51.984;20.956;2023-02-01T09:03:43;4.06;81.04
65598;SHT31;52267;51.984;20.956;2023-02-01T09:06:12;4.12;80.70
65598;SHT31;52267;51.984;20.956;2023-02-01T09:08:40;4.17;80.42
65598;SHT31;52267;51.984;20.956;2023-02-01T09:11:13;4.22;80.21
65598;SHT31;52267;51.984;20.956;2023-02-01T09:13:43;4.29;80.06
65598;SHT31;52267;51.984;20.956;2023-02-01T09:16:11;4.33;79.82
65598;SHT31;52267;51.984;20.956;2023-02-01T09:18:38;4.37;79.25
65598;SHT31;52267;51.984;20.956;2023-02-01T09:21:06;4.42;78.46
65598;SHT31;52267;51.984;20.956;2023-02-01T09:23:34;4.48;78.70
65598;SHT31;52267;51.984;20.956;2023-02-01T09:26:04;4.50;78.36
65598;SHT31;52267;51.984;20.956;2023-02-01T09:28:31;4.50;77.94
65598;SHT31;52267;51.984;20.956;2023-02-01T09:30:59;4.51;77.73
65598;SHT31;52267;51.984;20.956;2023-02-01T09:33:28;4.52;77.41
65598;SHT31;52267;51.984;20.956;2023-02-01T09:35:59;4.54;78.00
65598;SHT31;52267;51.984;20.956;2023-02-01T09:38:29;4.59;78.02
65598;SHT31;52267;51.984;20.956;2023-02-01T09:40:57;4.65;78.25
65598;SHT31;52267;51.984;20.956;2023-02-01T09:48:55;4.98;76.80
65598;SHT31;52267;51.984;20.956;2023-02-01T09:51:47;5.09;76.57
65598;SHT31;52267;51.984;20.956;2023-02-01T09:54:18;5.17;75.68
65598;SHT31;52267;51.984;20.956;2023-02-01T09:59:43;5.38;76.01
65598;SHT31;52267;51.984;20.956;2023-02-01T10:02:24;5.43;75.78
65598;SHT31;52267;51.984;20.956;2023-02-01T10:04:54;5.49;75.39
65598;SHT31;52267;51.984;20.956;2023-02-01T10:10:34;5.72;75.00
65598;SHT31;52267;51.984;20.956;2023-02-01T10:16:26;5.77;74.59
65598;SHT31;52267;51.984;20.956;2023-02-01T10:21:56;5.72;74.88
65598;SHT31;52267;51.984;20.956;2023-02-01T10:27:35;5.70;74.41
65598;SHT31;52267;51.984;20.956;2023-02-01T10:30:14;5.80;75.11
65598;SHT31;52267;51.984;20.956;2023-02-01T10:32:56;5.93;75.40
65598;SHT31;52267;51.984;20.956;2023-02-01T10:35:39;5.96;74.17
65598;SHT31;52267;51.984;20.956;2023-02-01T10:38:12;5.95;73.98
65598;SHT31;52267;51.984;20.956;2023-02-01T10:40:53;5.95;73.81
65598;SHT31;52267;51.984;20.956;2023-02-01T10:43:26;5.93;73.85
65598;SHT31;52267;51.984;20.956;2023-02-01T10:45:53;5.92;74.16
65598;SHT31;52267;51.984;20.956;2023-02-01T10:48:20;5.91;74.17
65598;SHT31;52267;51.984;20.956;2023-02-01T10:50:53;5.83;74.06
65598;SHT31;52267;51.984;20.956;2023-02-01T10:53:27;5.77;74.18
65598;SHT31;52267;51.984;20.956;2023-02-01T10:56:06;5.71;74.64
65598;SHT31;52267;51.984;20.956;2023-02-01T10:58:36;5.69;74.13
65598;SHT31;52267;51.984;20.956;2023-02-01T11:01:16;5.61;73.86
65598;SHT31;52267;51.984;20.956;2023-02-01T11:03:53;5.58;74.14
65598;SHT31;52267;51.984;20.956;2023-02-01T11:06:26;5.55;74.14
65598;SHT31;52267;51.984;20.956;2023-02-01T11:09:16;5.52;74.21
65598;SHT31;52267;51.984;20.956;2023-02-01T11:14:26;5.53;74.82
65598;SHT31;52267;51.984;20.956;2023-02-01T11:17:17;5.50;74.68
65598;SHT31;52267;51.984;20.956;2023-02-01T11:19:59;5.47;74.79
65598;SHT31;52267;51.984;20.956;2023-02-01T11:22:29;5.43;74.80
65598;SHT31;52267;51.984;20.956;2023-02-01T11:24:56;5.40;75.04
65598;SHT31;52267;51.984;20.956;2023-02-01T11:27:25;5.36;75.20
65598;SHT31;52267;51.984;20.956;2023-02-01T11:29:58;5.33;75.32
65598;SHT31;52267;51.984;20.956;2023-02-01T11:32:28;5.30;75.48
65598;SHT31;52267;51.984;20.956;2023-02-01T11:34:56;5.29;75.41
65598;SHT31;52267;51.984;20.956;2023-02-01T11:37:37;5.27;75.07
65598;SHT31;52267;51.984;20.956;2023-02-01T11:40:34;5.23;75.13
65598;SHT31;52267;51.984;20.956;2023-02-01T11:43:12;5.22;75.08
65598;SHT31;52267;51.984;20.956;2023-02-01T11:45:56;5.22;75.16
65598;SHT31;52267;51.984;20.956;2023-02-01T11:48:30;5.24;75.20
65598;SHT31;52267;51.984;20.956;2023-02-01T11:51:17;5.25;75.03
65598;SHT31;52267;51.984;20.956;2023-02-01T12:00:02;5.26;75.48
65598;SHT31;52267;51.984;20.956;2023-02-01T12:02:54;5.29;75.42
65598;SHT31;52267;51.984;20.956;2023-02-01T12:05:35;5.28;75.22
65598;SHT31;52267;51.984;20.956;2023-02-01T12:11:17;5.29;75.54
65598;SHT31;52267;51.984;20.956;2023-02-01T12:22:54;5.30;76.20
65598;SHT31;52267;51.984;20.956;2023-02-01T12:28:41;5.12;77.19
65598;SHT31;52267;51.984;20.956;2023-02-01T12:34:14;5.02;77.79
65598;SHT31;52267;51.984;20.956;2023-02-01T12:40:39;4.91;78.44
65598;SHT31;52267;51.984;20.956;2023-02-01T12:43:47;4.90;78.60
65598;SHT31;52267;51.984;20.956;2023-02-01T12:46:33;4.88;78.37
65598;SHT31;52267;51.984;20.956;2023-02-01T12:49:15;4.84;78.80
65598;SHT31;52267;51.984;20.956;2023-02-01T12:51:53;4.83;78.85
65598;SHT31;52267;51.984;20.956;2023-02-01T12:57:23;4.81;78.97
65598;SHT31;52267;51.984;20.956;2023-02-01T13:00:06;4.82;78.97
65598;SHT31;52267;51.984;20.956;2023-02-01T13:03:00;4.86;78.80
65598;SHT31;52267;51.984;20.956;2023-02-01T13:08:41;4.93;78.57
65598;SHT31;52267;51.984;20.956;2023-02-01T13:11:39;4.95;78.54
65598;SHT31;52267;51.984;20.956;2023-02-01T13:14:18;4.99;78.56
65598;SHT31;52267;51.984;20.956;2023-02-01T13:17:24;5.04;78.47
65598;SHT31;52267;51.984;20.956;2023-02-01T13:20:16;5.09;78.33
65598;SHT31;52267;51.984;20.956;2023-02-01T13:23:15;5.13;78.36
65598;SHT31;52267;51.984;20.956;2023-02-01T13:25:51;5.12;78.13
65598;SHT31;52267;51.984;20.956;2023-02-01T13:30:59;5.07;78.62
65598;SHT31;52267;51.984;20.956;2023-02-01T13:42:55;4.93;79.46
65598;SHT31;52267;51.984;20.956;2023-02-01T13:45:32;4.88;79.72
65598;SHT31;52267;51.984;20.956;2023-02-01T13:48:03;4.84;80.11
65598;SHT31;52267;51.984;20.956;2023-02-01T13:50:35;4.85;80.42
65598;SHT31;52267;51.984;20.956;2023-02-01T13:55:37;4.77;80.83
65598;SHT31;52267;51.984;20.956;2023-02-01T14:00:43;4.53;81.29
65598;SHT31;52267;51.984;20.956;2023-02-01T14:03:12;4.42;81.79
65598;SHT31;52267;51.984;20.956;2023-02-01T14:11:10;4.26;81.84
65598;SHT31;52267;51.984;20.956;2023-02-01T14:19:25;4.34;81.49
65598;SHT31;52267;51.984;20.956;2023-02-01T14:24:55;4.42;81.28
65598;SHT31;52267;51.984;20.956;2023-02-01T14:27:25;4.45;80.77
65598;SHT31;52267;51.984;20.956;2023-02-01T14:30:05;4.52;80.45
65598;SHT31;52267;51.984;20.956;2023-02-01T14:32:38;4.57;80.37
65598;SHT31;52267;51.984;20.956;2023-02-01T14:35:24;4.59;80.24
65598;SHT31;52267;51.984;20.956;2023-02-01T14:37:54;4.59;80.12
65598;SHT31;52267;51.984;20.956;2023-02-01T14:40:29;4.59;80.05
65598;SHT31;52267;51.984;20.956;2023-02-01T14:42:57;4.60;79.94
65598;SHT31;52267;51.984;20.956;2023-02-01T14:55:47;4.60;79.21
65598;SHT31;52267;51.984;20.956;2023-02-01T14:58:47;4.60;79.11
65598;SHT31;52267;51.984;20.956;2023-02-01T15:01:31;4.58;79.30
65598;SHT31;52267;51.984;20.956;2023-02-01T15:04:04;4.57;79.10
65598;SHT31;52267;51.984;20.956;2023-02-01T15:06:39;4.58;79.26
65598;SHT31;52267;51.984;20.956;2023-02-01T15:09:28;4.58;79.22
65598;SHT31;52267;51.984;20.956;2023-02-01T15:14:44;4.55;79.37
65598;SHT31;52267;51.984;20.956;2023-02-01T15:22:28;4.53;79.37
65598;SHT31;52267;51.984;20.956;2023-02-01T15:25:00;4.53;79.50
65598;SHT31;52267;51.984;20.956;2023-02-01T15:27:28;4.52;79.53
65598;SHT31;52267;51.984;20.956;2023-02-01T15:30:07;4.51;79.54
65598;SHT31;52267;51.984;20.956;2023-02-01T15:32:43;4.55;79.29
65598;SHT31;52267;51.984;20.956;2023-02-01T15:40:56;4.55;79.28
65598;SHT31;52267;51.984;20.956;2023-02-01T15:43:39;4.52;79.51
65598;SHT31;52267;51.984;20.956;2023-02-01T15:46:17;4.49;79.91
65598;SHT31;52267;51.984;20.956;2023-02-01T15:48:56;4.48;80.03
65598;SHT31;52267;51.984;20.956;2023-02-01T15:51:24;4.46;80.17
65598;SHT31;52267;51.984;20.956;2023-02-01T15:56:35;4.41;80.39
65598;SHT31;52267;51.984;20.956;2023-02-01T15:59:05;4.40;80.40
65598;SHT31;52267;51.984;20.956;2023-02-01T16:01:44;4.36;80.61
65598;SHT31;52267;51.984;20.956;2023-02-01T16:04:16;4.35;80.43
65598;SHT31;52267;51.984;20.956;2023-02-01T16:06:57;4.37;80.33
65598;SHT31;52267;51.984;20.956;2023-02-01T16:09:48;4.38;80.16
65598;SHT31;52267;51.984;20.956;2023-02-01T16:12:28;4.38;80.09
65598;SHT31;52267;51.984;20.956;2023-02-01T16:15:11;4.39;80.12
65598;SHT31;52267;51.984;20.956;2023-02-01T16:17:39;4.38;80.02
65598;SHT31;52267;51.984;20.956;2023-02-01T16:20:07;4.41;79.80
65598;SHT31;52267;51.984;20.956;2023-02-01T16:22:35;4.39;79.89
65598;SHT31;52267;51.984;20.956;2023-02-01T16:25:03;4.38;80.05
65598;SHT31;52267;51.984;20.956;2023-02-01T16:27:30;4.37;80.04
65598;SHT31;52267;51.984;20.956;2023-02-01T16:29:58;4.37;80.08
65598;SHT31;52267;51.984;20.956;2023-02-01T16:32:26;4.36;80.07
65598;SHT31;52267;51.984;20.956;2023-02-01T16:34:53;4.35;80.17
65598;SHT31;52267;51.984;20.956;2023-02-01T16:37:23;4.35;80.36
65598;SHT31;52267;51.984;20.956;2023-02-01T16:39:53;4.35;80.33
65598;SHT31;52267;51.984;20.956;2023-02-01T16:42:21;4.36;80.34
65598;SHT31;52267;51.984;20.956;2023-02-01T16:44:48;4.35;80.46
65598;SHT31;52267;51.984;20.956;2023-02-01T16:47:16;4.34;80.50
65598;SHT31;52267;51.984;20.956;2023-02-01T16:49:46;4.33;80.50
65598;SHT31;52267;51.984;20.956;2023-02-01T16:52:18;4.31;80.60
65598;SHT31;52267;51.984;20.956;2023-02-01T16:54:48;4.29;80.71
65598;SHT31;52267;51.984;20.956;2023-02-01T16:57:17;4.26;80.83
65598;SHT31;52267;51.984;20.956;2023-02-01T16:59:49;4.24;80.81
65598;SHT31;52267;51.984;20.956;2023-02-01T17:02:17;4.20;81.06
65598;SHT31;52267;51.984;20.956;2023-02-01T17:04:46;4.17;81.26
65598;SHT31;52267;51.984;20.956;2023-02-01T17:07:15;4.14;81.29
65598;SHT31;52267;51.984;20.956;2023-02-01T17:09:47;4.10;81.36
65598;SHT31;52267;51.984;20.956;2023-02-01T17:12:22;4.05;81.73
65598;SHT31;52267;51.984;20.956;2023-02-01T17:14:57;4.02;81.71
65598;SHT31;52267;51.984;20.956;2023-02-01T17:17:28;3.99;81.77
65598;SHT31;52267;51.984;20.956;2023-02-01T17:20:02;3.96;81.84
65598;SHT31;52267;51.984;20.956;2023-02-01T17:22:31;3.93;82.09
65598;SHT31;52267;51.984;20.956;2023-02-01T17:25:06;3.89;82.20
65598;SHT31;52267;51.984;20.956;2023-02-01T17:27:44;3.84;82.38
65598;SHT31;52267;51.984;20.956;2023-02-01T17:30:12;3.80;82.41
65598;SHT31;52267;51.984;20.956;2023-02-01T17:32:41;3.77;82.46
65598;SHT31;52267;51.984;20.956;2023-02-01T17:35:22;3.75;82.56
65598;SHT31;52267;51.984;20.956;2023-02-01T17:37:52;3.73;82.64
65598;SHT31;52267;51.984;20.956;2023-02-01T17:40:20;3.72;82.79
65598;SHT31;52267;51.984;20.956;2023-02-01T17:42:50;3.71;82.82
65598;SHT31;52267;51.984;20.956;2023-02-01T17:45:25;3.71;82.82
65598;SHT31;52267;51.984;20.956;2023-02-01T17:48:18;3.70;82.99
65598;SHT31;52267;51.984;20.956;2023-02-01T17:50:48;3.68;82.94
65598;SHT31;52267;51.984;20.956;2023-02-01T17:53:20;3.65;82.91
65598;SHT31;52267;51.984;20.956;2023-02-01T17:55:50;3.63;82.98
65598;SHT31;52267;51.984;20.956;2023-02-01T17:58:18;3.61;83.04
65598;SHT31;52267;51.984;20.956;2023-02-01T18:00:47;3.62;82.96
65598;SHT31;52267;51.984;20.956;2023-02-01T18:03:21;3.62;82.92
65598;SHT31;52267;51.984;20.956;2023-02-01T18:05:54;3.66;82.83
65598;SHT31;52267;51.984;20.956;2023-02-01T18:08:25;3.67;82.85
65598;SHT31;52267;51.984;20.956;2023-02-01T18:10:56;3.68;82.85
65598;SHT31;52267;51.984;20.956;2023-02-01T18:13:28;3.69;82.71
65598;SHT31;52267;51.984;20.956;2023-02-01T18:15:57;3.72;82.61
65598;SHT31;52267;51.984;20.956;2023-02-01T18:18:26;3.74;82.50
65598;SHT31;52267;51.984;20.956;2023-02-01T18:20:57;3.76;82.44
65598;SHT31;52267;51.984;20.956;2023-02-01T18:23:26;3.77;82.46
65598;SHT31;52267;51.984;20.956;2023-02-01T18:25:54;3.79;82.47
65598;SHT31;52267;51.984;20.956;2023-02-01T18:28:21;3.82;82.36
65598;SHT31;52267;51.984;20.956;2023-02-01T18:30:50;3.84;82.31
65598;SHT31;52267;51.984;20.956;2023-02-01T18:33:19;3.85;82.30
65598;SHT31;52267;51.984;20.956;2023-02-01T18:35:48;3.87;82.29